Minnedosa, Canada
Current Conditions -  °F | °C
As of 6:00 PM on Friday 24 Oct 2014 (Local Time) from CYBR Reporting Station
Few Clouds Few Clouds  
Wind Chill: 59°   Ceiling: Unl
Heat Index: 59°   Visibility: 15mi
Dew Point: 32°   Wind: 24mph
Humidity: 36%   Direction: 290°WNW
Pressure: 29.78"   Gusts: 35mph
Location:  50.25°N, 99.84°W
Report Text: CYBR 242300Z 29021G30KT 15SM FEW240 15/M00 A2978 RMK CI1 PRESRR SLP095 DENSITY ALT 1700FT
Loading
Personal Weather Stations






























Interactive Weather Map
Tropical Storm Tracking
New forecast layout! Learn more

10-Day Weather Forecast

Advertisements
Track Severe Weather on mobile